createdAt,value
2018-09-26T21:32:50.241Z,28.66
2018-09-26T21:33:50.099Z,28.53
2018-09-26T21:35:43.019Z,28.73
2018-09-26T21:36:43.033Z,28.79
2018-09-26T21:38:36.230Z,28.73
2018-09-26T21:39:35.966Z,28.75
2018-09-26T21:41:28.897Z,28.82
2018-09-26T21:42:28.914Z,28.71
2018-09-26T21:44:21.956Z,28.75
2018-09-26T21:45:21.827Z,28.75
2018-09-26T21:47:14.810Z,28.76
2018-09-26T21:49:27.911Z,28.79
2018-09-26T21:50:27.826Z,28.72
2018-09-26T21:52:20.743Z,28.76
2018-09-26T21:53:20.855Z,28.75
2018-09-26T21:55:14.003Z,28.75
2018-09-26T21:56:13.756Z,28.78
2018-09-26T21:58:06.676Z,28.88
2018-09-26T21:59:06.691Z,28.86
2018-09-26T22:00:59.730Z,28.83
2018-09-26T22:01:59.629Z,28.79
2018-09-26T22:03:52.619Z,28.71
2018-09-26T22:04:52.554Z,28.76
2018-09-26T22:06:45.623Z,28.71
2018-09-26T22:07:45.490Z,28.61
2018-09-26T22:09:38.990Z,28.67
2018-09-26T22:10:38.437Z,28.78
2018-09-26T22:12:31.475Z,28.73
2018-09-26T22:13:31.363Z,28.75
2018-09-26T22:15:24.334Z,28.81
2018-09-26T22:16:24.310Z,28.76
2018-09-26T22:18:17.497Z,28.75
2018-09-26T22:19:17.242Z,28.75
2018-09-26T22:21:10.082Z,28.76
2018-09-26T22:22:10.099Z,28.75
2018-09-26T22:24:03.312Z,28.76
2018-09-26T22:25:03.077Z,28.75
2018-09-26T22:26:55.958Z,28.79
2018-09-26T22:27:55.977Z,28.76
2018-09-26T22:29:49.225Z,28.73
2018-09-26T22:30:48.916Z,28.67
2018-09-26T22:32:41.828Z,28.67
2018-09-26T22:33:41.844Z,28.66
2018-09-26T22:35:35.070Z,28.75
2018-09-26T22:36:34.797Z,28.73
2018-09-26T22:38:27.706Z,28.79
2018-09-26T22:39:27.720Z,28.78
2018-09-26T22:41:20.895Z,28.73
2018-09-26T22:42:20.655Z,28.75
2018-09-26T22:44:13.572Z,28.66
2018-09-26T22:45:13.594Z,28.78
2018-09-26T22:47:06.768Z,28.75
2018-09-26T22:48:06.523Z,28.79
2018-09-26T22:49:59.468Z,28.79
2018-09-26T22:50:59.466Z,28.79
2018-09-26T22:52:52.432Z,28.79
2018-09-26T22:53:52.393Z,28.75
2018-09-26T22:55:45.312Z,28.66
2018-09-26T22:56:45.337Z,28.69
2018-09-26T22:58:38.515Z,28.69
2018-09-26T22:59:38.278Z,28.71
2018-09-26T23:01:31.180Z,28.51
2018-09-26T23:02:31.195Z,28.48
2018-09-26T23:04:24.463Z,28.56
2018-09-26T23:05:24.176Z,28.56
2018-09-26T23:07:17.167Z,28.49
2018-09-26T23:08:17.110Z,28.45
2018-09-26T23:10:10.327Z,28.51
2018-09-26T23:11:10.041Z,28.58
2018-09-26T23:13:02.968Z,28.58
2018-09-26T23:14:02.985Z,28.58
2018-09-26T23:15:56.238Z,28.39
2018-09-26T23:16:55.950Z,28.51
2018-09-26T23:18:48.895Z,28.51
2018-09-26T23:19:48.924Z,28.48
2018-09-26T23:21:42.088Z,28.57
2018-09-26T23:22:41.868Z,28.57
2018-09-26T23:24:34.788Z,28.61
2018-09-26T23:25:34.780Z,28.69
2018-09-26T23:27:27.969Z,28.63
2018-09-26T23:28:27.731Z,28.66
2018-09-26T23:30:20.649Z,28.66
2018-09-26T23:31:20.658Z,28.54
2018-09-26T23:33:13.829Z,28.61
2018-09-26T23:34:13.609Z,28.64
2018-09-26T23:36:06.483Z,28.66
2018-09-26T23:37:06.501Z,28.69
2018-09-26T23:39:00.751Z,28.72
2018-09-26T23:39:59.433Z,28.82
2018-09-26T23:41:52.545Z,28.82
2018-09-26T23:42:52.585Z,28.71
2018-09-26T23:44:45.751Z,28.76
2018-09-26T23:45:45.509Z,28.72
2018-09-26T23:47:38.449Z,28.66
2018-09-26T23:48:38.446Z,28.56
2018-09-26T23:50:31.680Z,28.63
2018-09-26T23:51:31.396Z,28.58
2018-09-26T23:53:24.316Z,28.76
2018-09-26T23:54:24.318Z,28.78
2018-09-26T23:56:17.508Z,28.79
2018-09-26T23:57:17.261Z,28.76
2018-09-26T23:59:10.156Z,28.82
